createdAt,value
2022-08-01T00:04:22.860Z,100579.47
2022-08-01T00:09:23.715Z,100570.03
2022-08-01T00:14:32.401Z,100571.03
2022-08-01T00:19:34.003Z,100599.13
2022-08-01T00:24:33.137Z,100589.75
2022-08-01T00:30:09.801Z,100554.13
2022-08-01T00:34:50.990Z,100554.59
2022-08-01T00:39:52.206Z,100580.41
2022-08-01T00:44:53.297Z,100586.53
2022-08-01T00:49:52.422Z,100546.88
2022-08-01T00:54:54.027Z,100569.13
2022-08-01T00:59:53.411Z,100548.28
2022-08-01T01:04:56.212Z,100582.94
2022-08-01T01:10:08.240Z,100557.91
2022-08-01T01:15:29.464Z,100583.31
2022-08-01T01:20:50.405Z,100565.56
2022-08-01T01:26:03.958Z,100543.75
2022-08-01T01:31:04.142Z,100535.22
2022-08-01T01:36:11.453Z,100577.50
2022-08-01T01:41:14.293Z,100537.91
2022-08-01T01:46:18.128Z,100508.63
2022-08-01T01:51:16.705Z,100521.78
2022-08-01T01:56:17.665Z,100529.91
2022-08-01T02:02:05.050Z,100522.69
2022-08-01T02:06:41.518Z,100540.22
2022-08-01T02:12:08.178Z,100516.13
2022-08-01T02:17:05.432Z,100553.19
2022-08-01T02:22:32.705Z,100548.53
2022-08-01T02:28:05.119Z,100534.56
2022-08-01T02:33:16.339Z,100553.94
2022-08-01T02:38:18.834Z,100518.72
2022-08-01T02:43:21.489Z,100531.50
2022-08-01T02:48:22.009Z,100522.66
2022-08-01T02:53:44.689Z,100505.78
2022-08-01T02:58:47.472Z,100493.97
2022-08-01T03:03:45.896Z,100510.19
2022-08-01T03:08:46.324Z,100494.69
2022-08-01T03:13:47.454Z,100482.44
2022-08-01T03:18:48.345Z,100489.59
2022-08-01T03:23:54.960Z,100542.91
2022-08-01T03:28:57.616Z,100508.81
2022-08-01T03:33:56.704Z,100536.78
2022-08-01T03:38:59.870Z,100514.31
2022-08-01T03:44:05.229Z,100520.88
2022-08-01T03:49:08.745Z,100522.34
2022-08-01T03:54:12.887Z,100507.56
2022-08-01T03:59:11.977Z,100492.59
2022-08-01T04:04:12.337Z,100492.75
2022-08-01T04:09:13.727Z,100501.13
2022-08-01T04:14:13.377Z,100526.03
2022-08-01T04:19:14.131Z,100478.38
2022-08-01T04:24:19.297Z,100486.06
2022-08-01T04:29:19.107Z,100502.53
2022-08-01T04:34:19.207Z,100488.91
2022-08-01T04:39:24.987Z,100495.72
2022-08-01T04:44:35.187Z,100520.13
2022-08-01T04:49:33.984Z,100479.91
2022-08-01T04:54:49.084Z,100505.75
2022-08-01T04:59:47.420Z,100497.44
2022-08-01T05:04:47.176Z,100507.66
2022-08-01T05:09:49.362Z,100493.56
2022-08-01T05:14:58.125Z,100516.97
2022-08-01T05:19:55.493Z,100510.88
2022-08-01T05:24:53.870Z,100476.75
2022-08-01T05:29:51.574Z,100503.84
2022-08-01T05:34:51.180Z,100467.13
2022-08-01T05:39:48.700Z,100512.63
2022-08-01T05:44:46.993Z,100479.06
2022-08-01T05:50:10.481Z,100511.91
2022-08-01T05:55:48.345Z,100507.88
2022-08-01T06:00:48.078Z,100476.81
2022-08-01T06:05:47.163Z,100499.31
2022-08-01T06:10:44.859Z,100516.66
2022-08-01T06:15:44.172Z,100496.81
2022-08-01T06:20:45.654Z,100487.53
2022-08-01T06:25:45.572Z,100526.94
2022-08-01T06:30:43.787Z,100511.97
2022-08-01T06:35:45.951Z,100501.84
2022-08-01T06:40:44.241Z,100475.53
2022-08-01T06:45:45.651Z,100506.00
2022-08-01T06:50:44.213Z,100523.16
2022-08-01T06:55:43.389Z,100514.94
2022-08-01T07:00:44.611Z,100501.72
2022-08-01T07:05:46.272Z,100524.53
2022-08-01T07:10:44.423Z,100489.63
2022-08-01T07:15:46.201Z,100507.84
2022-08-01T07:20:58.955Z,100521.47
2022-08-01T07:26:02.442Z,100482.25
2022-08-01T07:31:00.241Z,100529.03
2022-08-01T07:35:57.936Z,100488.25
2022-08-01T07:41:11.861Z,100492.06
2022-08-01T07:46:11.515Z,100510.19
2022-08-01T07:51:13.714Z,100497.38
2022-08-01T07:56:13.767Z,100497.88
2022-08-01T08:01:14.015Z,100489.13
2022-08-01T08:06:14.385Z,100488.47
2022-08-01T08:11:12.494Z,100479.72
2022-08-01T08:16:11.252Z,100486.72
2022-08-01T08:21:12.880Z,100473.84
2022-08-01T08:26:13.246Z,100515.97
2022-08-01T08:31:50.728Z,100486.50
2022-08-01T08:36:34.681Z,100512.44
2022-08-01T08:41:37.878Z,100482.50
2022-08-01T08:46:45.345Z,100491.47
2022-08-01T08:51:45.903Z,100495.59
2022-08-01T08:56:48.048Z,100510.66
2022-08-01T09:01:49.361Z,100502.16
2022-08-01T09:06:51.107Z,100492.44
2022-08-01T09:11:56.988Z,100513.81
2022-08-01T09:17:08.690Z,100504.94
2022-08-01T09:22:08.949Z,100487.84
2022-08-01T09:27:18.077Z,100530.91
2022-08-01T09:32:26.043Z,100502.44
2022-08-01T09:37:37.367Z,100494.47
2022-08-01T09:42:35.750Z,100520.53
2022-08-01T09:47:40.290Z,100491.94
2022-08-01T09:52:41.009Z,100523.78
2022-08-01T09:57:59.419Z,100499.38
2022-08-01T10:02:58.799Z,100511.63
2022-08-01T10:08:14.168Z,100516.06
2022-08-01T10:13:26.289Z,100512.22
2022-08-01T10:18:36.957Z,100502.63
2022-08-01T10:23:41.291Z,100521.38
2022-08-01T10:28:40.476Z,100515.00
2022-08-01T10:33:51.935Z,100516.13
2022-08-01T10:38:53.950Z,100545.19
2022-08-01T10:43:54.301Z,100526.47
2022-08-01T10:49:03.132Z,100510.22
2022-08-01T10:54:07.575Z,100550.66
2022-08-01T10:59:11.700Z,100504.41
2022-08-01T11:04:18.007Z,100518.41
2022-08-01T11:09:21.997Z,100542.63
2022-08-01T11:14:26.369Z,100506.75
2022-08-01T11:19:29.281Z,100497.44
2022-08-01T11:25:15.702Z,100529.88
2022-08-01T11:30:26.740Z,100511.16
2022-08-01T11:35:28.031Z,100530.84
2022-08-01T11:40:29.631Z,100507.16
2022-08-01T11:45:52.747Z,100511.25
2022-08-01T11:50:57.372Z,100480.78
2022-08-01T11:55:59.062Z,100496.06
2022-08-01T12:01:00.841Z,100505.78
2022-08-01T12:06:03.450Z,100487.16
2022-08-01T12:11:02.870Z,100505.06
2022-08-01T12:16:09.194Z,100506.47
2022-08-01T12:21:09.963Z,100493.25
2022-08-01T12:26:29.175Z,100476.69
2022-08-01T12:31:34.368Z,100501.16
2022-08-01T12:36:34.554Z,100475.53
2022-08-01T12:41:40.401Z,100486.28
2022-08-01T12:46:44.086Z,100479.34
2022-08-01T12:51:56.958Z,100468.16
2022-08-01T12:56:58.275Z,100496.81
2022-08-01T13:01:59.391Z,100469.41
2022-08-01T13:06:57.318Z,100450.56
2022-08-01T13:12:04.076Z,100478.50
2022-08-01T13:17:05.812Z,100479.03
2022-08-01T13:22:07.779Z,100491.66
2022-08-01T13:27:07.255Z,100455.34
2022-08-01T13:32:28.877Z,100470.22
2022-08-01T13:37:30.197Z,100468.63
2022-08-01T13:42:33.192Z,100465.03
2022-08-01T13:47:33.003Z,100462.72
2022-08-01T13:52:33.580Z,100468.78
2022-08-01T13:57:36.344Z,100450.13
2022-08-01T14:02:35.748Z,100455.38
2022-08-01T14:07:35.803Z,100466.72
2022-08-01T14:12:39.217Z,100456.88
2022-08-01T14:17:47.903Z,100451.69
2022-08-01T14:22:59.859Z,100464.66
2022-08-01T14:28:01.744Z,100489.13
2022-08-01T14:33:02.583Z,100459.28
2022-08-01T14:38:04.180Z,100467.50
2022-08-01T14:43:06.057Z,100451.28
2022-08-01T14:48:26.774Z,100476.34
2022-08-01T14:53:29.829Z,100439.09
2022-08-01T14:58:30.345Z,100456.00
2022-08-01T15:03:27.980Z,100470.75
2022-08-01T15:08:25.550Z,100445.59
2022-08-01T15:13:31.540Z,100477.72
2022-08-01T15:18:29.771Z,100460.28
2022-08-01T15:23:31.370Z,100446.41
2022-08-01T15:28:29.906Z,100453.34
2022-08-01T15:33:30.266Z,100456.88
2022-08-01T15:38:33.982Z,100428.47
2022-08-01T15:43:32.785Z,100446.69
2022-08-01T15:48:39.844Z,100437.88
2022-08-01T15:53:45.325Z,100433.47
2022-08-01T15:58:44.142Z,100426.88
2022-08-01T16:03:44.793Z,100442.91
2022-08-01T16:08:47.687Z,100452.78
2022-08-01T16:13:46.203Z,100455.31
2022-08-01T16:18:56.749Z,100458.44
2022-08-01T16:23:58.844Z,100464.38
2022-08-01T16:29:02.257Z,100471.31
2022-08-01T16:34:05.143Z,100469.59
2022-08-01T16:39:07.893Z,100488.75
2022-08-01T16:44:07.480Z,100476.47
2022-08-01T16:49:08.822Z,100490.09
2022-08-01T16:54:24.967Z,100487.91
2022-08-01T16:59:30.571Z,100499.16
2022-08-01T17:04:34.284Z,100512.94
2022-08-01T17:09:41.142Z,100477.47
2022-08-01T17:14:43.409Z,100477.16
2022-08-01T17:19:44.978Z,100484.31
2022-08-01T17:24:48.370Z,100477.41
2022-08-01T17:29:48.740Z,100505.94
2022-08-01T17:34:54.417Z,100502.97
2022-08-01T17:39:53.698Z,100507.41
2022-08-01T17:44:57.866Z,100515.00
2022-08-01T17:49:56.570Z,100515.19
2022-08-01T17:55:55.570Z,100515.22
2022-08-01T18:00:32.136Z,100524.44
2022-08-01T18:05:36.650Z,100530.88
2022-08-01T18:10:39.850Z,100545.63
2022-08-01T18:16:15.137Z,100572.63
2022-08-01T18:22:34.234Z,100580.06
2022-08-01T18:28:22.506Z,100588.94
2022-08-01T18:33:47.678Z,100566.34
2022-08-01T18:38:48.379Z,100553.94
2022-08-01T18:43:53.381Z,100589.28
2022-08-01T18:49:51.265Z,100591.59
2022-08-01T18:55:00.911Z,100568.75
2022-08-01T19:00:07.670Z,100587.00
2022-08-01T19:05:08.515Z,100591.16
2022-08-01T19:10:17.190Z,100626.53
2022-08-01T19:15:19.667Z,100606.22
2022-08-01T19:20:45.889Z,100621.38
2022-08-01T19:26:06.249Z,100612.84
2022-08-01T19:31:52.713Z,100615.31
2022-08-01T19:37:21.128Z,100621.94
2022-08-01T19:43:05.207Z,100629.88
2022-08-01T19:48:34.223Z,100607.88
2022-08-01T19:54:16.715Z,100639.38
2022-08-01T19:59:25.292Z,100654.69
2022-08-01T20:04:41.788Z,100603.72
2022-08-01T20:10:07.148Z,100661.75
2022-08-01T20:16:00.108Z,100668.59
2022-08-01T20:21:26.637Z,100635.38
2022-08-01T20:26:30.996Z,100614.28
2022-08-01T20:31:42.784Z,100631.28
2022-08-01T20:38:06.571Z,100660.47
2022-08-01T20:43:36.731Z,100655.56
2022-08-01T20:48:53.523Z,100628.13
2022-08-01T20:53:56.138Z,100659.94
2022-08-01T21:11:13.768Z,100649.50
2022-08-01T21:16:27.005Z,100650.56
2022-08-01T21:27:13.920Z,100654.81
2022-08-01T21:32:22.682Z,100655.38
2022-08-01T21:37:24.073Z,100676.28
2022-08-01T21:42:23.037Z,100696.00
2022-08-01T21:47:24.253Z,100698.56
2022-08-01T21:52:23.475Z,100688.84
2022-08-01T21:57:39.714Z,100714.38
2022-08-01T22:02:45.563Z,100703.81
2022-08-01T22:08:00.209Z,100706.34
2022-08-01T22:13:03.338Z,100694.06
2022-08-01T22:18:03.510Z,100680.63
2022-08-01T22:23:08.011Z,100688.69
2022-08-01T22:28:09.419Z,100694.84
2022-08-01T22:33:16.425Z,100700.00
2022-08-01T22:38:17.542Z,100697.06
2022-08-01T22:43:45.955Z,100711.19
2022-08-01T22:48:48.244Z,100692.66
2022-08-01T22:53:57.896Z,100672.69
2022-08-01T22:58:59.704Z,100699.69
2022-08-01T23:04:00.366Z,100661.84
2022-08-01T23:09:00.902Z,100702.06
2022-08-01T23:14:09.795Z,100682.59
2022-08-01T23:19:10.233Z,100698.91
2022-08-01T23:24:11.866Z,100673.59
2022-08-01T23:29:12.852Z,100714.94
2022-08-01T23:34:14.404Z,100707.63
2022-08-01T23:39:16.309Z,100678.75
2022-08-01T23:44:15.878Z,100697.88
2022-08-01T23:49:14.101Z,100675.34
2022-08-01T23:54:15.443Z,100679.16
2022-08-01T23:59:19.576Z,100677.38
